CYTH

Details ICAO CYTH (YTH)
Name THOMPSON
Region Canada
Timezone America/Winnipeg (UTC-6.0)
Plans Departing 8
Arriving 15
Stats Elevation 729 ft / 222 m (AMSL)
Location 55.801728° -97.859472°
Runways 2
Magnetic Variation 2.903° E
Sunrise 2017-12-13 14:55:11 UTC / 2017-12-13 08:55:11 Local
Sunset 2017-12-13 21:59:10 UTC / 2017-12-13 15:59:10 Local
Advertisement - Login to hide

Runways

ID Width Length Bearing (true) Bearing (mag) Surface Threshold Offset Overrun Length
05 150 ft / 46 m 5,786 ft / 1,764 m 60.93° 58.03° Asphalt 0 ft / 0 m 0 ft / 0 m
14 100 ft / 30 m 2,441 ft / 744 m 150.67° 147.77° Gravel 0 ft / 0 m 0 ft / 0 m
23 150 ft / 46 m 5,786 ft / 1,764 m 240.96° 238.06° Asphalt 0 ft / 0 m 0 ft / 0 m
32 100 ft / 30 m 2,441 ft / 744 m 330.68° 327.78° Gravel 0 ft / 0 m 0 ft / 0 m

Map

Weather


0- 5 10 15 20 25 30 35+ Temperature / ° C

Clouds and Precipitation
Forecast for 2017-12-13 12:00 UTC. Updated 35 minutes ago

Ground ~20,000 ft ~40,000 ft Winds

METAR

CYTH 130700Z 04006KT 2SM -SN BR OVC010 M15/M17 A2974 RMK SN5SC3 VIS VRB 1-3 SLP098

TAF

TAF CYTH 130638Z 1307/1319 03006KT P6SM SCT012 BKN025 TEMPO 1307/1310 2SM -SN BKN012 OVC025 FM131000 02004KT P6SM SCT020 BKN040 TEMPO 1310/1319 4SM -SN BKN020 OVC040 RMK NXT FCST BY 131300Z

Frequencies

Recorded 127.65 MHz ATIS
Tower 123.00 MHz INFO
Tower 122.95 MHz INFO
Tower 122.50 MHz RDO
Warning: Do not use this data for real-world aviation or navigation. No guarantee of current accuracy is given.